CIS weather

Canton Island Airport
Abariringa, Phoenix Islands, Kiribati

Public forecast

Using degrees Celsius for public forecast. Weather courtesy of forecast.io.

METAR (pilot weather report)

Report is more than 6 hours old.

Retrieved 2015/09/18 06:00 UTC (4 years ago):

PCIS 180600Z 11008KT 9999 FEW015CB BKN100 25/24 Q1007

TAF (pilot weather forecast)

Forecast is more than 12 hours old.

Closest forecast is Momote Airport, 2,451.7 nm (4,540.5 km) W. Retrieved 2018/08/02 20:51 UTC (1 year ago):

TAF TAF AYMO 021437Z 0220/0308 16010KT 9999 SCT018 BKN140 Q1008 1010 1009 1007